CST,Max TemperatureF,Mean TemperatureF,Min TemperatureF,Max Dew PointF,MeanDew PointF,Min DewpointF,Max Humidity, Mean Humidity, Min Humidity, Max Sea Level PressureIn, Mean Sea Level PressureIn, Min Sea Level PressureIn, Max VisibilityMiles, Mean VisibilityMiles, Min VisibilityMiles, Max Wind SpeedMPH, Mean Wind SpeedMPH, Max Gust SpeedMPH,PrecipitationIn, CloudCover, Events, WindDirDegrees
2013-2-1,28,20,12,13,5,-1,59,48,36,30.56,30.44,30.32,10,10,10,15,10,22,0.00,2,,245
2013-2-2,46,37,28,27,20,13,72,53,36,30.30,30.15,30.09,10,10,10,15,10,26,0.00,5,,244
2013-2-3,37,32,27,30,26,18,93,75,48,30.20,30.10,30.02,10,6,0,18,4,29,0.03,5,Fog-Snow,277
2013-2-4,48,39,30,39,31,20,89,70,44,30.06,29.92,29.83,10,10,10,20,9,26,0.01,4,Rain,214
2013-2-5,57,42,26,35,28,23,93,73,40,30.13,29.99,29.93,10,6,1,12,4,20,0.00,1,,276
2013-2-6,51,39,27,33,28,22,86,67,41,30.28,30.19,30.10,10,8,2,8,4,,0.00,0,,118
2013-2-7,66,48,30,52,42,27,94,76,42,30.08,29.95,29.85,10,8,3,16,6,26,0.21,5,Rain,298
2013-2-8,43,39,34,38,31,25,82,73,65,30.39,30.24,30.01,10,8,4,20,13,28,0.00,8,,356
2013-2-9,48,40,33,35,27,25,76,63,46,30.39,30.27,30.06,10,10,8,10,6,20,0.05,4,Rain,120
2013-2-10,57,50,42,52,44,35,88,77,51,30.05,29.83,29.66,10,9,2,20,10,31,0.40,7,Rain-Thunderstorm,174
2013-2-11,53,44,34,32,26,21,73,50,32,30.17,30.06,29.83,10,10,10,20,12,29,0.00,0,,259
2013-2-12,48,38,28,33,29,23,82,65,46,30.18,30.08,29.92,10,10,10,9,1,,0.00,4,,27
2013-2-13,52,44,36,36,34,28,87,75,40,29.94,29.90,29.86,10,8,2,10,6,30,0.08,5,Rain,271
2013-2-14,60,48,36,35,32,28,86,59,32,30.06,29.95,29.88,10,10,10,16,8,29,0.00,2,,249
2013-2-15,43,36,28,33,24,15,70,56,35,30.25,30.20,30.06,10,10,10,17,8,23,0.00,3,,330
2013-2-16,39,32,25,20,15,8,69,51,29,30.27,30.23,30.20,10,10,10,15,7,21,0.00,1,,311
2013-2-17,50,37,24,24,20,15,71,51,30,30.25,30.16,30.01,10,10,10,15,4,22,0.00,3,,145
2013-2-18,57,50,42,48,41,24,88,72,49,29.99,29.80,29.63,10,8,2,30,18,44,0.62,6,Rain,200
2013-2-19,44,36,28,29,18,10,65,50,27,30.30,30.12,29.94,10,10,10,18,12,30,0.00,1,,299
2013-2-20,30,28,25,17,14,11,66,56,51,30.41,30.34,30.31,10,10,10,9,6,,0.00,3,,358
2013-2-21,36,31,26,32,25,16,89,78,59,30.33,30.02,29.83,10,5,1,24,10,37,0.54,7,Rain-Snow,83
2013-2-22,39,34,28,32,29,23,89,78,65,30.10,29.97,29.84,10,8,2,16,7,18,0.00,6,,240
2013-2-23,41,32,24,24,22,20,88,69,51,30.09,30.05,29.99,10,10,6,8,3,,0.00,0,,341
2013-2-24,50,36,23,29,25,19,85,62,39,30.16,30.10,30.04,10,8,4,9,2,,0.00,0,,97
2013-2-25,54,44,35,33,29,26,72,54,40,30.07,29.87,29.55,10,10,6,18,9,29,0.08,5,Rain,71
2013-2-26,51,45,39,43,38,32,82,77,63,29.68,29.46,29.34,10,9,3,17,12,29,0.52,8,Rain,211
2013-2-27,41,37,33,34,29,26,83,72,60,29.91,29.83,29.70,10,7,2,16,11,28,0.06,8,Rain-Snow,273
2013-2-28,39,36,33,30,28,25,87,74,65,30.11,30.03,29.90,10,7,2,15,9,22,0.01,8,Snow,295